Time;durP1;ratioP1;P1;durP2;ratioP2;P2;SDS_P1;SDS_P2;PMS_P1;PMS_P2;Temp;Humidity;BMP_temperature;BMP_pressure;BME280_temperature;BME280_humidity;BME280_pressure;Samples;Min_cycle;Max_cycle;Signal;HPM_P1;HPM_P2
2021/04/13 00:02:26;;;;;;;13.85;9.60;;;;;;;;;;5078628;28;20044;-67
2021/04/13 00:04:54;;;;;;;18.40;9.63;;;;;;;;;;5078757;28;20090;-67
2021/04/13 00:07:22;;;;;;;18.10;11.38;;;;;;;;;;5075502;28;20062;-67
2021/04/13 00:09:49;;;;;;;15.07;10.13;;;;;;;;;;5082692;28;20048;-67
2021/04/13 00:12:21;;;;;;;16.70;10.32;;;;;;;;;;5074582;28;20052;-67
2021/04/13 00:14:50;;;;;;;16.10;10.73;;;;;;;;;;5081539;28;20524;-67
2021/04/13 00:17:20;;;;;;;18.42;11.48;;;;;;;;;;5074381;28;20078;-67
2021/04/13 00:19:49;;;;;;;13.25;9.07;;;;;;;;;;5080769;28;20113;-67
2021/04/13 00:22:16;;;;;;;19.08;11.98;;;;;;;;;;5080561;28;20051;-67
2021/04/13 00:24:42;;;;;;;17.95;11.55;;;;;;;;;;5077977;28;20630;-67
2021/04/13 00:27:12;;;;;;;16.63;11.38;;;;;;;;;;5080042;28;20057;-67
2021/04/13 00:29:38;;;;;;;18.05;11.32;;;;;;;;;;5082919;28;20044;-67
2021/04/13 00:32:05;;;;;;;16.40;10.77;;;;;;;;;;5081107;28;20044;-67
2021/04/13 00:34:40;;;;;;;21.10;13.10;;;;;;;;;;5076057;28;20496;-67
2021/04/13 00:37:13;;;;;;;17.40;12.23;;;;;;;;;;5074447;28;20459;-67
2021/04/13 00:39:39;;;;;;;19.88;12.00;;;;;;;;;;5079664;28;20036;-67
2021/04/13 00:42:10;;;;;;;18.33;11.68;;;;;;;;;;5076483;28;20055;-67
2021/04/13 00:44:40;;;;;;;18.25;11.10;;;;;;;;;;5080931;28;20052;-67
2021/04/13 00:47:09;;;;;;;16.75;10.82;;;;;;;;;;5078403;28;20105;-67
2021/04/13 00:49:37;;;;;;;20.70;13.43;;;;;;;;;;5080619;28;20617;-67
2021/04/13 00:52:06;;;;;;;15.75;10.82;;;;;;;;;;5079212;28;20051;-67
2021/04/13 00:54:37;;;;;;;21.38;13.80;;;;;;;;;;5080476;28;20049;-67
2021/04/13 00:57:05;;;;;;;24.20;14.38;;;;;;;;;;5078809;28;20086;-67
2021/04/13 00:59:32;;;;;;;23.88;14.30;;;;;;;;;;5082319;28;20037;-66
2021/04/13 01:02:02;;;;;;;21.38;13.55;;;;;;;;;;5078830;28;20045;-66
2021/04/13 01:04:30;;;;;;;20.52;13.68;;;;;;;;;;5080289;28;20499;-66
2021/04/13 01:07:02;;;;;;;19.00;11.45;;;;;;;;;;5080519;28;20473;-66
2021/04/13 01:09:28;;;;;;;17.50;11.80;;;;;;;;;;5078361;28;20076;-66
2021/04/13 01:11:57;;;;;;;19.27;12.40;;;;;;;;;;5081906;28;20067;-66
2021/04/13 01:14:24;;;;;;;19.88;11.95;;;;;;;;;;5079699;28;20411;-66
2021/04/13 01:16:55;;;;;;;18.27;11.02;;;;;;;;;;5078475;28;20113;-66
2021/04/13 01:19:45;;;;;;;19.40;13.00;;;;;;;;;;5077317;28;20437;-67
2021/04/13 01:22:20;;;;;;;19.17;12.25;;;;;;;;;;5076809;28;20044;-67
2021/04/13 01:24:50;;;;;;;15.73;10.63;;;;;;;;;;5079478;28;20460;-67
2021/04/13 01:27:17;;;;;;;16.70;11.23;;;;;;;;;;5078288;28;20040;-67
2021/04/13 01:29:43;;;;;;;19.05;11.70;;;;;;;;;;5082055;28;20055;-67
2021/04/13 01:32:10;;;;;;;19.92;12.15;;;;;;;;;;5080497;28;20532;-67
2021/04/13 01:34:52;;;;;;;17.38;11.02;;;;;;;;;;5082132;28;20077;-67
2021/04/13 01:37:30;;;;;;;19.75;12.25;;;;;;;;;;5079755;28;20055;-67
2021/04/13 01:40:00;;;;;;;26.45;15.93;;;;;;;;;;5076069;28;20087;-67
2021/04/13 01:42:27;;;;;;;24.33;15.15;;;;;;;;;;5079173;28;20071;-67
2021/04/13 01:44:58;;;;;;;23.05;14.30;;;;;;;;;;5078580;28;20048;-67
2021/04/13 01:47:26;;;;;;;21.27;12.60;;;;;;;;;;5078851;28;20071;-67
2021/04/13 01:49:54;;;;;;;19.40;11.63;;;;;;;;;;5080747;28;20047;-66
2021/04/13 01:52:24;;;;;;;18.17;12.23;;;;;;;;;;5077125;28;20039;-67
2021/04/13 01:54:51;;;;;;;18.70;12.15;;;;;;;;;;5079737;28;20358;-66
2021/04/13 01:57:27;;;;;;;19.50;11.98;;;;;;;;;;5077688;28;20056;-66
2021/04/13 01:59:55;;;;;;;17.95;12.68;;;;;;;;;;5082099;28;20154;-67
2021/04/13 02:02:27;;;;;;;20.60;12.30;;;;;;;;;;5078910;28;21691;-67
2021/04/13 02:04:55;;;;;;;20.42;13.23;;;;;;;;;;5084088;28;20425;-67
2021/04/13 02:07:33;;;;;;;20.63;12.85;;;;;;;;;;5081261;28;20057;-67
2021/04/13 02:10:09;;;;;;;16.50;10.68;;;;;;;;;;5082047;28;20062;-66
2021/04/13 02:12:37;;;;;;;17.15;11.13;;;;;;;;;;5087567;28;20166;-66
2021/04/13 02:15:08;;;;;;;20.67;12.70;;;;;;;;;;5082252;28;20410;-66
2021/04/13 02:17:38;;;;;;;22.90;13.57;;;;;;;;;;5083970;28;22930;-67
2021/04/13 02:20:07;;;;;;;20.45;12.57;;;;;;;;;;5080441;28;20036;-66
2021/04/13 02:22:33;;;;;;;23.63;14.25;;;;;;;;;;5083978;28;20052;-67
2021/04/13 02:25:01;;;;;;;17.92;11.40;;;;;;;;;;5083527;28;20051;-67
2021/04/13 02:27:29;;;;;;;18.27;11.45;;;;;;;;;;5083319;28;20048;-67
2021/04/13 02:30:05;;;;;;;17.48;11.32;;;;;;;;;;5081456;28;20048;-66
2021/04/13 02:32:33;;;;;;;19.65;12.10;;;;;;;;;;5084111;28;20525;-66
2021/04/13 02:35:03;;;;;;;22.00;13.27;;;;;;;;;;5082427;28;20063;-67
2021/04/13 02:37:33;;;;;;;30.27;16.45;;;;;;;;;;5082661;28;20465;-67
2021/04/13 02:40:05;;;;;;;23.48;13.45;;;;;;;;;;5083160;28;20049;-66
2021/04/13 02:42:37;;;;;;;21.13;13.57;;;;;;;;;;5084089;28;20642;-66
2021/04/13 02:45:06;;;;;;;17.33;11.88;;;;;;;;;;5078674;28;20477;-67
2021/04/13 02:47:36;;;;;;;25.42;14.55;;;;;;;;;;5085408;28;20420;-67
2021/04/13 02:50:06;;;;;;;17.73;11.65;;;;;;;;;;5079442;28;20044;-67
2021/04/13 02:52:36;;;;;;;22.98;14.63;;;;;;;;;;5083224;28;20056;-66
2021/04/13 02:55:05;;;;;;;17.45;11.27;;;;;;;;;;5076927;28;20054;-67
2021/04/13 02:57:35;;;;;;;22.55;14.60;;;;;;;;;;5082768;28;20058;-66
2021/04/13 03:00:04;;;;;;;20.80;13.50;;;;;;;;;;5080293;28;20045;-67
2021/04/13 03:02:37;;;;;;;22.15;13.88;;;;;;;;;;5081609;28;20503;-66
2021/04/13 03:05:05;;;;;;;16.52;10.57;;;;;;;;;;5079709;28;20047;-66
2021/04/13 03:07:32;;;;;;;15.82;10.65;;;;;;;;;;5085510;28;20048;-66
2021/04/13 03:10:03;;;;;;;17.88;10.20;;;;;;;;;;5080480;28;20093;-67
2021/04/13 03:12:30;;;;;;;19.98;12.27;;;;;;;;;;5080315;28;20048;-66
2021/04/13 03:14:57;;;;;;;19.35;11.63;;;;;;;;;;5078327;28;20053;-67
2021/04/13 03:17:26;;;;;;;18.30;11.82;;;;;;;;;;5084226;28;20454;-67
2021/04/13 03:19:53;;;;;;;17.88;12.07;;;;;;;;;;5082479;28;20048;-67
2021/04/13 03:22:21;;;;;;;18.70;12.30;;;;;;;;;;5078146;28;20051;-67
2021/04/13 03:24:49;;;;;;;17.42;11.00;;;;;;;;;;5080016;28;20106;-67
2021/04/13 03:27:17;;;;;;;21.80;13.20;;;;;;;;;;5080459;28;20056;-67
2021/04/13 03:29:49;;;;;;;20.40;12.85;;;;;;;;;;5079069;28;20049;-67
2021/04/13 03:32:18;;;;;;;23.83;12.88;;;;;;;;;;5079433;28;20457;-67
2021/04/13 03:34:45;;;;;;;17.60;10.98;;;;;;;;;;5078008;28;20040;-67
2021/04/13 03:37:11;;;;;;;17.45;10.15;;;;;;;;;;5083396;28;20049;-67
2021/04/13 03:39:41;;;;;;;21.08;12.38;;;;;;;;;;5078972;28;20040;-67
2021/04/13 03:42:13;;;;;;;24.45;14.20;;;;;;;;;;5082897;28;20048;-67
2021/04/13 03:44:39;;;;;;;21.33;12.85;;;;;;;;;;5082778;28;20048;-67
2021/04/13 03:47:10;;;;;;;21.90;13.60;;;;;;;;;;5082950;28;20118;-67
2021/04/13 03:49:37;;;;;;;20.38;12.57;;;;;;;;;;5079548;28;20048;-67
2021/04/13 03:52:08;;;;;;;18.75;11.60;;;;;;;;;;5076948;28;20052;-67
2021/04/13 03:54:36;;;;;;;24.10;13.18;;;;;;;;;;5076223;28;20056;-67
2021/04/13 03:57:04;;;;;;;19.73;12.73;;;;;;;;;;5081835;28;20048;-67
2021/04/13 03:59:33;;;;;;;21.30;14.20;;;;;;;;;;5077172;28;20052;-67
2021/04/13 04:01:59;;;;;;;23.20;14.43;;;;;;;;;;5082486;28;20062;-67
2021/04/13 04:04:30;;;;;;;28.55;17.42;;;;;;;;;;5079887;28;20457;-67
2021/04/13 04:06:59;;;;;;;21.10;13.48;;;;;;;;;;5076631;28;20059;-67
2021/04/13 04:09:37;;;;;;;20.35;13.10;;;;;;;;;;5072564;28;20052;-68
2021/04/13 04:12:15;;;;;;;24.25;13.60;;;;;;;;;;5073876;28;20036;-68
2021/04/13 04:14:41;;;;;;;29.20;17.05;;;;;;;;;;5073761;28;20052;-68
2021/04/13 04:17:13;;;;;;;25.17;15.15;;;;;;;;;;5072036;28;20135;-68
2021/04/13 04:19:39;;;;;;;19.95;12.18;;;;;;;;;;5072732;28;20045;-67
2021/04/13 04:22:06;;;;;;;21.23;14.15;;;;;;;;;;5071903;28;20072;-67
2021/04/13 04:24:34;;;;;;;25.70;15.18;;;;;;;;;;5072168;28;20041;-67
2021/04/13 04:27:04;;;;;;;24.10;14.95;;;;;;;;;;5071262;28;20055;-67
2021/04/13 04:29:38;;;;;;;23.23;14.02;;;;;;;;;;5070694;28;20048;-67
2021/04/13 04:32:12;;;;;;;27.30;16.38;;;;;;;;;;5075414;28;20060;-67
2021/04/13 04:34:53;;;;;;;26.33;16.48;;;;;;;;;;5074085;28;20503;-68
2021/04/13 04:37:32;;;;;;;22.48;14.82;;;;;;;;;;5067590;28;20052;-68
2021/04/13 04:40:17;;;;;;;27.65;16.98;;;;;;;;;;5074560;28;20420;-68
2021/04/13 04:42:49;;;;;;;31.95;16.77;;;;;;;;;;5074496;28;20047;-68
2021/04/13 04:45:17;;;;;;;25.27;15.00;;;;;;;;;;5072453;28;20477;-68
2021/04/13 04:47:44;;;;;;;26.40;15.70;;;;;;;;;;5072035;28;20390;-68
2021/04/13 04:50:12;;;;;;;26.48;14.23;;;;;;;;;;5072404;28;20500;-68
2021/04/13 04:52:38;;;;;;;23.92;14.00;;;;;;;;;;5077087;28;20044;-68
2021/04/13 04:55:05;;;;;;;26.85;14.27;;;;;;;;;;5074480;28;20048;-66
2021/04/13 04:57:31;;;;;;;24.77;16.40;;;;;;;;;;5073569;28;20085;-66
2021/04/13 04:59:58;;;;;;;43.78;22.98;;;;;;;;;;5072879;28;20044;-66
2021/04/13 05:02:24;;;;;;;45.67;24.15;;;;;;;;;;5080773;28;20059;-66
2021/04/13 05:04:51;;;;;;;45.15;23.90;;;;;;;;;;5080863;28;20082;-66
2021/04/13 05:07:17;;;;;;;30.58;17.95;;;;;;;;;;5076401;28;20044;-65
2021/04/13 05:09:43;;;;;;;32.58;18.92;;;;;;;;;;5078600;28;20409;-66
2021/04/13 05:12:10;;;;;;;32.80;16.92;;;;;;;;;;5080016;28;20072;-66
2021/04/13 05:14:36;;;;;;;28.85;17.42;;;;;;;;;;5074696;28;20048;-66
2021/04/13 05:17:03;;;;;;;27.58;16.73;;;;;;;;;;5074865;28;20052;-67
2021/04/13 05:19:29;;;;;;;28.27;16.67;;;;;;;;;;5071594;28;20048;-67
2021/04/13 05:21:55;;;;;;;26.10;14.95;;;;;;;;;;5071726;28;20098;-66
2021/04/13 05:24:21;;;;;;;26.27;16.42;;;;;;;;;;5076172;28;20052;-66
2021/04/13 05:26:47;;;;;;;27.33;16.65;;;;;;;;;;5077119;28;20654;-66
2021/04/13 05:29:13;;;;;;;37.03;20.20;;;;;;;;;;5078690;28;20049;-66
2021/04/13 05:31:41;;;;;;;27.02;16.20;;;;;;;;;;5082974;28;20048;-67
2021/04/13 05:34:08;;;;;;;32.90;17.35;;;;;;;;;;5082758;28;20055;-67
2021/04/13 05:36:34;;;;;;;28.73;16.80;;;;;;;;;;5080777;28;20056;-67
2021/04/13 05:39:01;;;;;;;27.17;16.73;;;;;;;;;;5080926;28;20047;-67
2021/04/13 05:41:27;;;;;;;26.73;17.00;;;;;;;;;;5083696;28;20050;-67
2021/04/13 05:43:54;;;;;;;28.35;16.80;;;;;;;;;;5083280;28;20077;-67
2021/04/13 05:46:24;;;;;;;27.25;17.75;;;;;;;;;;5080202;28;20048;-68
2021/04/13 05:48:50;;;;;;;24.42;15.35;;;;;;;;;;5080339;28;20037;-67
2021/04/13 05:51:17;;;;;;;30.05;16.70;;;;;;;;;;5080916;28;20468;-67
2021/04/13 05:53:43;;;;;;;29.75;18.08;;;;;;;;;;5080412;28;20537;-69
2021/04/13 05:56:12;;;;;;;30.65;16.50;;;;;;;;;;5080090;28;20052;-67
2021/04/13 05:58:45;;;;;;;34.80;18.30;;;;;;;;;;5082657;28;20461;-67
2021/04/13 06:01:11;;;;;;;38.50;17.80;;;;;;;;;;5082900;28;20040;-67
2021/04/13 06:03:37;;;;;;;32.40;16.25;;;;;;;;;;5078766;28;20481;-68
2021/04/13 06:06:03;;;;;;;30.45;16.50;;;;;;;;;;5082988;28;20052;-68
2021/04/13 06:08:30;;;;;;;27.55;15.55;;;;;;;;;;5084081;28;20048;-67
2021/04/13 06:10:57;;;;;;;32.83;17.65;;;;;;;;;;5084030;28;20509;-66
2021/04/13 06:13:23;;;;;;;27.90;17.13;;;;;;;;;;5085941;28;20048;-67
2021/04/13 06:15:52;;;;;;;28.92;17.83;;;;;;;;;;5084463;28;20040;-66
2021/04/13 06:18:18;;;;;;;27.50;17.88;;;;;;;;;;5083296;28;20083;-66
2021/04/13 06:20:44;;;;;;;28.42;17.95;;;;;;;;;;5086166;28;20048;-67
2021/04/13 06:23:11;;;;;;;31.25;19.90;;;;;;;;;;5084949;28;20051;-67
2021/04/13 06:25:38;;;;;;;25.95;17.92;;;;;;;;;;5087882;28;20044;-67
2021/04/13 06:28:05;;;;;;;25.25;17.27;;;;;;;;;;5081530;28;20053;-68
2021/04/13 06:30:32;;;;;;;21.63;15.73;;;;;;;;;;5085439;28;20051;-67
2021/04/13 06:32:58;;;;;;;25.08;16.02;;;;;;;;;;5084212;28;20054;-67
2021/04/13 06:35:25;;;;;;;29.00;17.20;;;;;;;;;;5082582;28;20548;-67
2021/04/13 06:37:52;;;;;;;27.90;17.33;;;;;;;;;;5082701;28;20040;-67
2021/04/13 06:40:29;;;;;;;25.80;15.68;;;;;;;;;;5082942;28;20057;-67
2021/04/13 06:43:06;;;;;;;23.80;15.40;;;;;;;;;;5082951;28;20063;-69
2021/04/13 06:45:37;;;;;;;23.67;14.98;;;;;;;;;;5081331;28;20057;-67
2021/04/13 06:48:19;;;;;;;23.85;14.68;;;;;;;;;;5080612;28;20045;-70
2021/04/13 06:50:51;;;;;;;22.08;14.38;;;;;;;;;;5081605;28;20040;-67
2021/04/13 06:53:25;;;;;;;20.30;12.52;;;;;;;;;;5081509;28;20039;-68
2021/04/13 06:56:19;;;;;;;22.13;15.00;;;;;;;;;;5080898;28;20049;-67
2021/04/13 06:59:23;;;;;;;21.15;13.23;;;;;;;;;;5078626;28;20377;-66
2021/04/13 07:01:52;;;;;;;18.38;12.40;;;;;;;;;;5082109;28;20051;-68
2021/04/13 07:04:22;;;;;;;20.60;13.25;;;;;;;;;;5082293;28;20063;-67
2021/04/13 07:06:51;;;;;;;19.25;12.60;;;;;;;;;;5086512;28;20052;-66
2021/04/13 07:09:21;;;;;;;19.48;13.05;;;;;;;;;;5077959;28;20048;-70
2021/04/13 07:11:51;;;;;;;19.63;12.40;;;;;;;;;;5078848;28;20072;-67
2021/04/13 07:14:21;;;;;;;18.52;12.57;;;;;;;;;;5078713;28;20056;-67
2021/04/13 07:16:55;;;;;;;19.33;11.98;;;;;;;;;;5080685;28;20049;-66
2021/04/13 07:19:26;;;;;;;17.23;11.75;;;;;;;;;;5077902;28;20431;-66
2021/04/13 07:22:00;;;;;;;18.00;11.20;;;;;;;;;;5086291;28;20049;-69
2021/04/13 07:24:30;;;;;;;18.83;11.73;;;;;;;;;;5082168;28;20060;-68
2021/04/13 07:27:03;;;;;;;15.63;11.77;;;;;;;;;;5083751;28;20094;-66
2021/04/13 07:29:32;;;;;;;16.88;11.27;;;;;;;;;;5083778;28;20048;-66
2021/04/13 07:32:03;;;;;;;15.95;10.73;;;;;;;;;;5080770;28;20047;-68
2021/04/13 07:34:30;;;;;;;17.45;11.48;;;;;;;;;;5085050;28;20044;-66
2021/04/13 07:36:59;;;;;;;15.27;10.80;;;;;;;;;;5077852;28;20465;-66
2021/04/13 07:39:27;;;;;;;13.20;10.10;;;;;;;;;;5082017;28;20048;-66
2021/04/13 07:41:57;;;;;;;13.55;10.32;;;;;;;;;;5083652;28;20751;-68
2021/04/13 07:44:26;;;;;;;12.25;9.35;;;;;;;;;;5080511;28;20432;-66
2021/04/13 07:47:01;;;;;;;11.60;8.70;;;;;;;;;;5079932;28;20043;-66
2021/04/13 07:49:31;;;;;;;12.80;7.97;;;;;;;;;;5081005;28;20048;-67
2021/04/13 07:52:03;;;;;;;10.85;8.50;;;;;;;;;;5075783;28;20041;-67
2021/04/13 07:54:52;;;;;;;10.52;7.75;;;;;;;;;;5080729;28;20060;-69
2021/04/13 07:57:23;;;;;;;11.18;7.50;;;;;;;;;;5070816;28;20068;-68
2021/04/13 08:00:04;;;;;;;9.82;6.93;;;;;;;;;;5081612;28;20044;-66
2021/04/13 08:02:31;;;;;;;9.23;6.63;;;;;;;;;;5080682;28;20059;-66
2021/04/13 08:04:59;;;;;;;8.95;6.97;;;;;;;;;;5080840;28;20424;-67
2021/04/13 08:07:28;;;;;;;9.20;7.32;;;;;;;;;;5075807;28;20056;-67
2021/04/13 08:10:14;;;;;;;9.57;7.32;;;;;;;;;;5081987;28;20048;-66
2021/04/13 08:12:52;;;;;;;8.10;6.88;;;;;;;;;;5078924;28;20044;-66
2021/04/13 08:15:20;;;;;;;8.30;6.22;;;;;;;;;;5083559;28;20086;-66
2021/04/13 08:18:01;;;;;;;8.52;6.05;;;;;;;;;;5084457;28;20044;-67
2021/04/13 08:20:30;;;;;;;8.70;6.45;;;;;;;;;;5078554;28;20048;-66
2021/04/13 08:22:58;;;;;;;7.97;6.38;;;;;;;;;;5076815;28;20044;-66
2021/04/13 08:25:34;;;;;;;7.00;5.78;;;;;;;;;;5081363;28;20142;-66
2021/04/13 08:28:07;;;;;;;8.93;6.13;;;;;;;;;;5079304;28;20055;-66
2021/04/13 08:30:44;;;;;;;7.70;6.05;;;;;;;;;;5077778;28;20045;-66
2021/04/13 08:33:21;;;;;;;8.38;5.65;;;;;;;;;;5080092;28;20136;-67
2021/04/13 08:36:05;;;;;;;6.72;5.32;;;;;;;;;;5075902;28;20121;-65
2021/04/13 08:38:47;;;;;;;8.23;5.72;;;;;;;;;;5078983;28;20106;-67
2021/04/13 08:41:22;;;;;;;6.55;5.50;;;;;;;;;;5084250;28;20040;-68
2021/04/13 08:43:53;;;;;;;7.80;5.78;;;;;;;;;;5076367;28;20083;-68
2021/04/13 08:46:30;;;;;;;7.38;5.82;;;;;;;;;;5077649;28;20101;-66
2021/04/13 08:49:02;;;;;;;7.95;6.53;;;;;;;;;;5074562;28;20048;-67
2021/04/13 08:51:35;;;;;;;8.05;6.63;;;;;;;;;;5078017;28;20497;-66
2021/04/13 08:54:25;;;;;;;9.27;6.57;;;;;;;;;;5070543;28;20040;-66
2021/04/13 08:56:57;;;;;;;10.45;7.05;;;;;;;;;;5076027;28;20500;-68
2021/04/13 08:59:36;;;;;;;10.90;6.38;;;;;;;;;;5078585;28;20068;-67
2021/04/13 09:02:11;;;;;;;14.68;6.88;;;;;;;;;;5072150;28;20082;-68
2021/04/13 09:04:38;;;;;;;17.75;6.65;;;;;;;;;;5079240;28;20047;-66
2021/04/13 09:07:07;;;;;;;9.55;6.75;;;;;;;;;;5071310;28;20048;-66
2021/04/13 09:09:43;;;;;;;7.35;5.65;;;;;;;;;;5079584;28;20409;-67
2021/04/13 09:12:13;;;;;;;7.88;6.15;;;;;;;;;;5076325;28;20056;-68
2021/04/13 09:14:46;;;;;;;8.15;5.97;;;;;;;;;;5079419;28;20139;-68
2021/04/13 09:17:24;;;;;;;10.32;6.55;;;;;;;;;;5072008;28;20139;-67
2021/04/13 09:19:54;;;;;;;7.68;6.00;;;;;;;;;;5077651;28;20075;-67
2021/04/13 09:22:23;;;;;;;7.45;5.53;;;;;;;;;;5078683;28;20550;-66
2021/04/13 09:24:56;;;;;;;9.60;6.22;;;;;;;;;;5077712;28;20106;-66
2021/04/13 09:27:34;;;;;;;8.65;5.90;;;;;;;;;;5075745;28;20048;-68
2021/04/13 09:30:24;;;;;;;6.60;5.18;;;;;;;;;;5078901;28;20071;-68
2021/04/13 09:32:50;;;;;;;7.28;5.18;;;;;;;;;;5072846;28;20052;-68
2021/04/13 09:35:44;;;;;;;7.75;5.38;;;;;;;;;;5078840;28;20060;-67
2021/04/13 09:38:20;;;;;;;6.70;4.70;;;;;;;;;;5083074;28;20044;-68
2021/04/13 09:41:01;;;;;;;7.13;4.72;;;;;;;;;;5080821;28;20040;-72
2021/04/13 09:43:32;;;;;;;6.05;4.93;;;;;;;;;;5078419;28;20052;-67
2021/04/13 09:46:01;;;;;;;5.65;4.13;;;;;;;;;;5080748;28;20552;-66
2021/04/13 09:48:53;;;;;;;6.50;4.72;;;;;;;;;;5077125;28;20519;-66
2021/04/13 09:51:24;;;;;;;7.25;4.97;;;;;;;;;;5062029;28;20052;-67
2021/04/13 09:54:01;;;;;;;5.28;4.57;;;;;;;;;;5081109;28;20049;-67
2021/04/13 09:57:05;;;;;;;7.75;4.78;;;;;;;;;;5079628;28;20451;-67
2021/04/13 10:00:16;;;;;;;6.50;5.15;;;;;;;;;;5054107;28;20040;-66
2021/04/13 10:03:12;;;;;;;7.07;5.20;;;;;;;;;;5009860;28;20041;-67
2021/04/13 10:05:40;;;;;;;6.18;4.57;;;;;;;;;;5077560;28;20040;-68
2021/04/13 10:08:12;;;;;;;9.50;5.53;;;;;;;;;;5076541;28;20083;-68
2021/04/13 10:10:42;;;;;;;6.20;5.00;;;;;;;;;;5077586;28;20474;-67
2021/04/13 10:13:35;;;;;;;6.60;5.20;;;;;;;;;;5079281;28;20493;-66
2021/04/13 10:16:09;;;;;;;6.38;4.85;;;;;;;;;;5076866;28;20051;-66
2021/04/13 10:19:01;;;;;;;7.75;5.93;;;;;;;;;;5069748;28;20062;-66
2021/04/13 10:21:43;;;;;;;7.03;5.70;;;;;;;;;;5082119;28;20504;-66
2021/04/13 10:24:34;;;;;;;7.88;5.68;;;;;;;;;;5074383;28;20055;-66
2021/04/13 10:27:24;;;;;;;6.38;5.05;;;;;;;;;;5072747;28;20052;-67
2021/04/13 10:30:11;;;;;;;9.07;5.78;;;;;;;;;;5070790;28;20134;-69
2021/04/13 10:33:06;;;;;;;6.47;5.60;;;;;;;;;;5074691;28;20052;-65
2021/04/13 10:36:21;;;;;;;7.85;5.45;;;;;;;;;;5078434;28;20408;-65
2021/04/13 10:39:31;;;;;;;5.40;4.80;;;;;;;;;;5073692;28;20068;-65
2021/04/13 10:42:33;;;;;;;7.15;5.22;;;;;;;;;;5061839;28;20078;-67
2021/04/13 10:45:39;;;;;;;5.72;4.68;;;;;;;;;;5082171;28;20048;-66
2021/04/13 10:48:54;;;;;;;6.32;4.85;;;;;;;;;;5081233;28;20094;-65
2021/04/13 10:52:01;;;;;;;6.43;4.45;;;;;;;;;;5079299;28;20043;-65
2021/04/13 10:55:18;;;;;;;6.35;5.35;;;;;;;;;;5077884;28;21274;-65
2021/04/13 10:58:18;;;;;;;6.22;5.60;;;;;;;;;;5071344;28;20044;-65
2021/04/13 11:01:03;;;;;;;7.90;5.82;;;;;;;;;;5040456;28;20050;-65
2021/04/13 11:04:17;;;;;;;5.50;4.73;;;;;;;;;;5079132;28;20049;-66
2021/04/13 11:07:15;;;;;;;6.45;4.68;;;;;;;;;;5081495;28;20293;-66
2021/04/13 11:09:52;;;;;;;7.00;5.70;;;;;;;;;;5081034;28;20040;-66
2021/04/13 11:12:53;;;;;;;8.23;5.85;;;;;;;;;;5081651;28;20627;-69
2021/04/13 11:15:37;;;;;;;6.72;4.95;;;;;;;;;;5080931;28;20500;-66
2021/04/13 11:18:10;;;;;;;5.78;4.30;;;;;;;;;;5078261;28;20040;-66
2021/04/13 11:20:52;;;;;;;5.57;4.40;;;;;;;;;;5081969;28;20115;-66
2021/04/13 11:23:42;;;;;;;6.47;4.53;;;;;;;;;;5082638;28;20056;-66
2021/04/13 11:27:05;;;;;;;6.95;5.05;;;;;;;;;;5078717;28;20504;-66
2021/04/13 11:30:10;;;;;;;5.75;4.93;;;;;;;;;;5081172;28;20551;-67
2021/04/13 11:33:21;;;;;;;6.35;5.13;;;;;;;;;;5075242;28;20135;-67
2021/04/13 11:35:52;;;;;;;5.95;4.80;;;;;;;;;;5076482;28;20049;-65
2021/04/13 11:38:27;;;;;;;7.38;4.95;;;;;;;;;;5077104;28;20078;-66
2021/04/13 11:41:10;;;;;;;5.70;5.10;;;;;;;;;;5079441;28;20401;-66
2021/04/13 11:43:39;;;;;;;5.65;4.40;;;;;;;;;;5079489;28;20051;-67
2021/04/13 11:46:08;;;;;;;6.15;4.80;;;;;;;;;;5077349;28;20060;-66
2021/04/13 11:48:41;;;;;;;5.68;4.63;;;;;;;;;;5083507;28;20511;-66
2021/04/13 11:51:09;;;;;;;5.30;4.55;;;;;;;;;;5080147;28;20052;-67
2021/04/13 11:53:38;;;;;;;8.65;4.55;;;;;;;;;;5075306;28;20060;-65
2021/04/13 11:56:06;;;;;;;6.30;4.72;;;;;;;;;;5071815;28;20071;-66
2021/04/13 11:58:33;;;;;;;6.80;5.00;;;;;;;;;;5079840;28;20041;-66
2021/04/13 12:01:34;;;;;;;4.97;4.25;;;;;;;;;;5074873;28;20044;-66
2021/04/13 12:04:02;;;;;;;6.68;5.30;;;;;;;;;;5074256;28;20052;-66
2021/04/13 12:06:54;;;;;;;7.50;6.07;;;;;;;;;;5076039;28;20056;-65
2021/04/13 12:09:45;;;;;;;5.93;5.32;;;;;;;;;;5058831;28;20577;-66
2021/04/13 12:12:44;;;;;;;6.80;6.07;;;;;;;;;;5076944;28;20059;-66
2021/04/13 12:15:54;;;;;;;7.18;5.97;;;;;;;;;;5073146;28;20059;-66
2021/04/13 12:18:57;;;;;;;7.28;5.38;;;;;;;;;;5075089;28;20051;-66
2021/04/13 12:21:58;;;;;;;6.38;5.30;;;;;;;;;;5064640;28;20055;-66
2021/04/13 12:24:51;;;;;;;8.93;5.80;;;;;;;;;;5073589;28;20045;-66
2021/04/13 12:27:59;;;;;;;7.68;5.32;;;;;;;;;;5071799;28;20110;-66
2021/04/13 12:30:50;;;;;;;6.70;4.57;;;;;;;;;;5075659;28;20473;-66
2021/04/13 12:33:51;;;;;;;6.65;4.93;;;;;;;;;;5072433;28;20059;-66
2021/04/13 12:36:43;;;;;;;6.38;4.55;;;;;;;;;;5073833;28;20046;-69
2021/04/13 12:39:10;;;;;;;7.97;5.07;;;;;;;;;;5073388;28;20052;-66
2021/04/13 12:41:54;;;;;;;8.20;4.95;;;;;;;;;;5074552;28;20058;-66
2021/04/13 12:44:23;;;;;;;6.45;4.75;;;;;;;;;;5074329;28;20056;-66
2021/04/13 12:46:49;;;;;;;7.35;5.18;;;;;;;;;;5078172;28;20602;-67
2021/04/13 12:49:20;;;;;;;6.85;4.55;;;;;;;;;;5072629;28;20055;-67
2021/04/13 12:51:53;;;;;;;7.35;5.18;;;;;;;;;;5073253;28;20044;-67
2021/04/13 12:54:29;;;;;;;5.55;4.30;;;;;;;;;;5073809;28;20153;-67
2021/04/13 12:56:57;;;;;;;6.88;4.72;;;;;;;;;;5078154;28;20056;-66
2021/04/13 12:59:27;;;;;;;5.25;4.18;;;;;;;;;;5074420;28;20093;-66
2021/04/13 13:01:53;;;;;;;6.82;4.88;;;;;;;;;;5074500;28;20040;-66
2021/04/13 13:04:21;;;;;;;6.57;4.25;;;;;;;;;;5074245;28;20060;-66
2021/04/13 13:06:51;;;;;;;5.50;4.22;;;;;;;;;;5072859;28;20082;-66
2021/04/13 13:09:26;;;;;;;7.97;5.03;;;;;;;;;;5074358;28;20417;-67
2021/04/13 13:12:02;;;;;;;6.93;5.10;;;;;;;;;;5072725;28;20437;-67
2021/04/13 13:14:31;;;;;;;6.10;4.85;;;;;;;;;;5073160;28;20433;-67
2021/04/13 13:16:58;;;;;;;5.50;4.63;;;;;;;;;;5075707;28;20048;-66
2021/04/13 13:19:32;;;;;;;8.13;5.32;;;;;;;;;;5076266;28;20045;-67
2021/04/13 13:22:01;;;;;;;5.80;5.10;;;;;;;;;;5074026;28;20096;-66
2021/04/13 13:24:32;;;;;;;9.20;5.75;;;;;;;;;;5073124;28;20469;-67
2021/04/13 13:26:58;;;;;;;6.30;4.93;;;;;;;;;;5079519;28;20054;-66
2021/04/13 13:29:24;;;;;;;7.68;5.53;;;;;;;;;;5080483;28;20059;-66
2021/04/13 13:31:51;;;;;;;5.80;4.78;;;;;;;;;;5077337;28;20428;-67
2021/04/13 13:34:20;;;;;;;6.05;4.63;;;;;;;;;;5081194;28;20044;-66
2021/04/13 13:36:47;;;;;;;6.05;4.90;;;;;;;;;;5079748;28;20044;-66
2021/04/13 13:39:15;;;;;;;11.05;4.82;;;;;;;;;;5083071;28;20134;-68
2021/04/13 13:41:45;;;;;;;5.07;4.25;;;;;;;;;;5072682;28;20378;-66
2021/04/13 13:44:17;;;;;;;6.13;5.03;;;;;;;;;;5082339;28;20048;-66
2021/04/13 13:46:45;;;;;;;14.38;5.25;;;;;;;;;;5075557;28;20099;-66
2021/04/13 13:49:17;;;;;;;8.45;4.63;;;;;;;;;;5080262;28;20044;-66
2021/04/13 13:51:59;;;;;;;7.45;5.15;;;;;;;;;;5075823;28;20048;-66
2021/04/13 13:54:28;;;;;;;6.80;4.97;;;;;;;;;;5076763;28;20083;-65
2021/04/13 13:56:54;;;;;;;6.88;5.32;;;;;;;;;;5086650;28;20048;-66
2021/04/13 13:59:41;;;;;;;5.82;4.60;;;;;;;;;;5086913;28;20041;-66
2021/04/13 14:02:10;;;;;;;5.93;4.03;;;;;;;;;;5084072;28;20071;-66
2021/04/13 14:04:38;;;;;;;5.97;4.40;;;;;;;;;;5080000;28;20060;-66
2021/04/13 14:07:05;;;;;;;7.65;4.82;;;;;;;;;;5079888;28;20097;-66
2021/04/13 14:09:32;;;;;;;5.53;4.53;;;;;;;;;;5080302;28;20090;-66
2021/04/13 14:12:26;;;;;;;5.70;4.80;;;;;;;;;;5086193;28;20044;-66
2021/04/13 14:14:52;;;;;;;6.80;5.05;;;;;;;;;;5082731;28;20056;-66
2021/04/13 14:17:19;;;;;;;5.95;4.60;;;;;;;;;;5075094;28;20048;-66
2021/04/13 14:19:46;;;;;;;6.10;4.93;;;;;;;;;;5080283;28;20485;-67
2021/04/13 14:22:25;;;;;;;5.40;4.80;;;;;;;;;;5082573;28;20052;-66
2021/04/13 14:25:14;;;;;;;5.53;4.88;;;;;;;;;;5084741;28;20059;-67
2021/04/13 14:27:41;;;;;;;7.00;5.45;;;;;;;;;;5078289;28;20048;-67
2021/04/13 14:30:11;;;;;;;6.63;5.25;;;;;;;;;;5080387;28;20045;-65
2021/04/13 14:32:38;;;;;;;6.47;4.57;;;;;;;;;;5083729;28;20047;-67
2021/04/13 14:35:09;;;;;;;7.03;4.80;;;;;;;;;;5076635;28;20048;-65
2021/04/13 14:37:37;;;;;;;7.38;4.93;;;;;;;;;;5075526;28;20052;-65
2021/04/13 14:40:08;;;;;;;7.05;5.07;;;;;;;;;;5077667;28;20090;-66
2021/04/13 14:42:36;;;;;;;7.57;5.72;;;;;;;;;;5079703;28;20052;-66
2021/04/13 14:45:02;;;;;;;7.10;5.38;;;;;;;;;;5079326;28;20040;-67
2021/04/13 14:47:31;;;;;;;7.95;5.32;;;;;;;;;;5079885;28;20141;-67
2021/04/13 14:49:58;;;;;;;8.00;6.30;;;;;;;;;;5077974;28;20036;-66
2021/04/13 14:52:25;;;;;;;8.60;6.45;;;;;;;;;;5083790;28;20053;-67
2021/04/13 14:54:52;;;;;;;10.65;7.80;;;;;;;;;;5083368;28;20060;-66
2021/04/13 14:57:18;;;;;;;9.68;7.28;;;;;;;;;;5080938;28;20060;-67
2021/04/13 14:59:44;;;;;;;20.65;12.88;;;;;;;;;;5085010;28;20491;-65
2021/04/13 15:02:11;;;;;;;12.15;10.77;;;;;;;;;;5083608;28;20505;-65
2021/04/13 15:04:37;;;;;;;34.97;25.55;;;;;;;;;;5077519;28;20044;-67
2021/04/13 15:07:03;;;;;;;11.60;10.40;;;;;;;;;;5075329;28;20051;-65
2021/04/13 15:09:31;;;;;;;12.82;10.35;;;;;;;;;;5074271;28;20055;-65